sensor_id;sensor_type;location;lat;lon;timestamp;P1;durP1;ratioP1;P2;durP2;ratioP2
49998;SDS011;68071;45.062;7.356;2023-04-19T00:01:53;1.45;;;1.10;;
49998;SDS011;68071;45.062;7.356;2023-04-19T00:04:57;1.88;;;1.00;;
49998;SDS011;68071;45.062;7.356;2023-04-19T00:08:01;1.85;;;1.02;;
49998;SDS011;68071;45.062;7.356;2023-04-19T00:11:05;1.13;;;0.90;;
49998;SDS011;68071;45.062;7.356;2023-04-19T00:14:09;1.95;;;1.10;;
49998;SDS011;68071;45.062;7.356;2023-04-19T00:17:13;2.10;;;1.13;;
49998;SDS011;68071;45.062;7.356;2023-04-19T00:20:17;1.52;;;1.25;;
49998;SDS011;68071;45.062;7.356;2023-04-19T00:23:22;1.90;;;1.20;;
49998;SDS011;68071;45.062;7.356;2023-04-19T00:26:26;1.75;;;1.65;;
49998;SDS011;68071;45.062;7.356;2023-04-19T00:29:30;1.70;;;1.25;;
49998;SDS011;68071;45.062;7.356;2023-04-19T00:35:39;1.75;;;1.20;;
49998;SDS011;68071;45.062;7.356;2023-04-19T00:38:46;1.40;;;1.13;;
49998;SDS011;68071;45.062;7.356;2023-04-19T00:41:50;1.95;;;1.33;;
49998;SDS011;68071;45.062;7.356;2023-04-19T00:44:55;1.95;;;1.17;;
49998;SDS011;68071;45.062;7.356;2023-04-19T00:47:59;1.30;;;1.00;;
49998;SDS011;68071;45.062;7.356;2023-04-19T00:51:04;1.52;;;0.98;;
49998;SDS011;68071;45.062;7.356;2023-04-19T00:54:08;2.08;;;0.90;;
49998;SDS011;68071;45.062;7.356;2023-04-19T00:57:14;1.70;;;1.10;;
49998;SDS011;68071;45.062;7.356;2023-04-19T01:00:19;1.20;;;1.10;;
49998;SDS011;68071;45.062;7.356;2023-04-19T01:03:23;1.77;;;0.95;;
49998;SDS011;68071;45.062;7.356;2023-04-19T01:06:29;1.88;;;1.00;;
49998;SDS011;68071;45.062;7.356;2023-04-19T01:09:34;2.22;;;0.90;;
49998;SDS011;68071;45.062;7.356;2023-04-19T01:12:38;1.38;;;1.00;;
49998;SDS011;68071;45.062;7.356;2023-04-19T01:15:42;1.45;;;1.08;;
49998;SDS011;68071;45.062;7.356;2023-04-19T01:18:46;1.45;;;1.20;;
49998;SDS011;68071;45.062;7.356;2023-04-19T01:21:50;1.52;;;1.00;;
49998;SDS011;68071;45.062;7.356;2023-04-19T01:24:55;2.88;;;1.10;;
49998;SDS011;68071;45.062;7.356;2023-04-19T01:27:59;1.27;;;1.15;;
49998;SDS011;68071;45.062;7.356;2023-04-19T01:31:03;1.48;;;1.30;;
49998;SDS011;68071;45.062;7.356;2023-04-19T01:34:07;1.58;;;1.20;;
49998;SDS011;68071;45.062;7.356;2023-04-19T01:37:11;2.20;;;1.00;;
49998;SDS011;68071;45.062;7.356;2023-04-19T01:40:18;1.42;;;1.10;;
49998;SDS011;68071;45.062;7.356;2023-04-19T01:43:22;1.95;;;1.10;;
49998;SDS011;68071;45.062;7.356;2023-04-19T01:46:29;2.03;;;1.10;;
49998;SDS011;68071;45.062;7.356;2023-04-19T01:49:33;1.77;;;1.20;;
49998;SDS011;68071;45.062;7.356;2023-04-19T01:52:37;1.45;;;1.20;;
49998;SDS011;68071;45.062;7.356;2023-04-19T01:55:41;2.30;;;1.90;;
49998;SDS011;68071;45.062;7.356;2023-04-19T01:58:45;3.20;;;2.90;;
49998;SDS011;68071;45.062;7.356;2023-04-19T02:01:49;1.90;;;1.60;;
49998;SDS011;68071;45.062;7.356;2023-04-19T02:04:54;1.70;;;1.25;;
49998;SDS011;68071;45.062;7.356;2023-04-19T02:08:00;2.93;;;1.10;;
49998;SDS011;68071;45.062;7.356;2023-04-19T02:11:07;1.90;;;1.40;;
49998;SDS011;68071;45.062;7.356;2023-04-19T02:14:13;1.50;;;1.02;;
49998;SDS011;68071;45.062;7.356;2023-04-19T02:17:16;1.75;;;1.45;;
49998;SDS011;68071;45.062;7.356;2023-04-19T02:20:21;3.08;;;1.33;;
49998;SDS011;68071;45.062;7.356;2023-04-19T02:23:26;1.38;;;1.27;;
49998;SDS011;68071;45.062;7.356;2023-04-19T02:26:31;2.35;;;1.20;;
49998;SDS011;68071;45.062;7.356;2023-04-19T02:29:35;1.70;;;1.13;;
49998;SDS011;68071;45.062;7.356;2023-04-19T02:35:44;1.70;;;0.98;;
49998;SDS011;68071;45.062;7.356;2023-04-19T02:38:49;1.20;;;1.10;;
49998;SDS011;68071;45.062;7.356;2023-04-19T02:41:54;2.40;;;1.10;;
49998;SDS011;68071;45.062;7.356;2023-04-19T02:44:58;1.65;;;1.20;;
49998;SDS011;68071;45.062;7.356;2023-04-19T02:48:02;1.67;;;1.27;;
49998;SDS011;68071;45.062;7.356;2023-04-19T02:51:07;1.65;;;1.20;;
49998;SDS011;68071;45.062;7.356;2023-04-19T02:54:13;1.98;;;1.10;;
49998;SDS011;68071;45.062;7.356;2023-04-19T02:57:20;1.77;;;1.40;;
49998;SDS011;68071;45.062;7.356;2023-04-19T03:00:25;1.70;;;1.30;;
49998;SDS011;68071;45.062;7.356;2023-04-19T03:03:39;2.25;;;1.40;;
49998;SDS011;68071;45.062;7.356;2023-04-19T03:06:43;1.55;;;1.25;;
49998;SDS011;68071;45.062;7.356;2023-04-19T03:09:48;1.52;;;1.10;;
49998;SDS011;68071;45.062;7.356;2023-04-19T03:12:52;2.03;;;1.30;;
49998;SDS011;68071;45.062;7.356;2023-04-19T03:15:56;1.45;;;1.20;;
49998;SDS011;68071;45.062;7.356;2023-04-19T03:18:59;1.40;;;1.30;;
49998;SDS011;68071;45.062;7.356;2023-04-19T03:22:08;1.88;;;1.20;;
49998;SDS011;68071;45.062;7.356;2023-04-19T03:25:13;1.45;;;1.15;;
49998;SDS011;68071;45.062;7.356;2023-04-19T03:28:21;1.48;;;1.10;;
49998;SDS011;68071;45.062;7.356;2023-04-19T03:31:44;2.20;;;1.30;;
49998;SDS011;68071;45.062;7.356;2023-04-19T03:34:49;2.60;;;1.27;;
49998;SDS011;68071;45.062;7.356;2023-04-19T03:37:53;2.45;;;1.40;;
49998;SDS011;68071;45.062;7.356;2023-04-19T03:40:57;2.00;;;1.30;;
49998;SDS011;68071;45.062;7.356;2023-04-19T03:44:05;2.03;;;1.48;;
49998;SDS011;68071;45.062;7.356;2023-04-19T03:47:10;1.85;;;1.30;;
49998;SDS011;68071;45.062;7.356;2023-04-19T03:50:20;1.92;;;1.60;;
49998;SDS011;68071;45.062;7.356;2023-04-19T03:53:29;1.65;;;1.38;;
49998;SDS011;68071;45.062;7.356;2023-04-19T03:56:33;1.90;;;1.23;;
49998;SDS011;68071;45.062;7.356;2023-04-19T03:59:37;2.05;;;1.33;;
49998;SDS011;68071;45.062;7.356;2023-04-19T04:02:41;2.78;;;1.48;;
49998;SDS011;68071;45.062;7.356;2023-04-19T04:05:48;1.50;;;1.35;;
49998;SDS011;68071;45.062;7.356;2023-04-19T04:08:52;1.88;;;1.40;;
49998;SDS011;68071;45.062;7.356;2023-04-19T04:11:56;1.67;;;1.20;;
49998;SDS011;68071;45.062;7.356;2023-04-19T04:15:01;1.95;;;1.17;;
49998;SDS011;68071;45.062;7.356;2023-04-19T04:18:06;2.35;;;1.20;;
49998;SDS011;68071;45.062;7.356;2023-04-19T04:34:06;1.42;;;1.20;;
49998;SDS011;68071;45.062;7.356;2023-04-19T04:37:14;2.38;;;1.63;;
49998;SDS011;68071;45.062;7.356;2023-04-19T04:40:19;1.92;;;1.75;;
49998;SDS011;68071;45.062;7.356;2023-04-19T04:43:24;2.33;;;1.73;;
49998;SDS011;68071;45.062;7.356;2023-04-19T04:46:32;3.00;;;2.15;;
49998;SDS011;68071;45.062;7.356;2023-04-19T04:49:36;2.92;;;1.85;;
49998;SDS011;68071;45.062;7.356;2023-04-19T04:52:40;1.90;;;1.52;;
49998;SDS011;68071;45.062;7.356;2023-04-19T04:55:52;3.08;;;2.13;;
49998;SDS011;68071;45.062;7.356;2023-04-19T04:58:57;2.53;;;1.70;;
49998;SDS011;68071;45.062;7.356;2023-04-19T05:02:06;2.50;;;2.30;;
49998;SDS011;68071;45.062;7.356;2023-04-19T05:05:10;2.63;;;2.10;;
49998;SDS011;68071;45.062;7.356;2023-04-19T05:08:15;2.42;;;1.77;;
49998;SDS011;68071;45.062;7.356;2023-04-19T05:11:19;2.60;;;1.95;;
49998;SDS011;68071;45.062;7.356;2023-04-19T05:14:24;2.58;;;1.83;;
49998;SDS011;68071;45.062;7.356;2023-04-19T05:17:29;2.10;;;1.90;;
49998;SDS011;68071;45.062;7.356;2023-04-19T05:20:33;3.15;;;1.42;;
49998;SDS011;68071;45.062;7.356;2023-04-19T05:23:52;2.60;;;1.90;;
49998;SDS011;68071;45.062;7.356;2023-04-19T05:26:56;3.60;;;2.13;;
49998;SDS011;68071;45.062;7.356;2023-04-19T05:30:03;2.38;;;1.73;;
49998;SDS011;68071;45.062;7.356;2023-04-19T05:33:10;2.53;;;1.70;;
49998;SDS011;68071;45.062;7.356;2023-04-19T05:36:15;3.20;;;1.63;;
49998;SDS011;68071;45.062;7.356;2023-04-19T05:39:19;2.00;;;1.77;;
49998;SDS011;68071;45.062;7.356;2023-04-19T05:42:23;5.20;;;1.90;;
49998;SDS011;68071;45.062;7.356;2023-04-19T05:45:27;6.18;;;2.28;;
49998;SDS011;68071;45.062;7.356;2023-04-19T05:48:32;5.90;;;2.45;;
49998;SDS011;68071;45.062;7.356;2023-04-19T05:52:04;4.00;;;1.88;;
49998;SDS011;68071;45.062;7.356;2023-04-19T05:55:26;2.78;;;1.83;;
49998;SDS011;68071;45.062;7.356;2023-04-19T05:58:30;1.88;;;1.45;;
49998;SDS011;68071;45.062;7.356;2023-04-19T06:01:34;2.53;;;1.85;;
49998;SDS011;68071;45.062;7.356;2023-04-19T06:04:38;2.60;;;1.83;;
49998;SDS011;68071;45.062;7.356;2023-04-19T06:07:43;1.80;;;1.33;;
49998;SDS011;68071;45.062;7.356;2023-04-19T06:10:47;2.33;;;1.40;;
49998;SDS011;68071;45.062;7.356;2023-04-19T06:13:51;1.92;;;1.50;;
49998;SDS011;68071;45.062;7.356;2023-04-19T06:16:56;2.83;;;1.70;;
49998;SDS011;68071;45.062;7.356;2023-04-19T06:20:00;1.90;;;1.30;;
49998;SDS011;68071;45.062;7.356;2023-04-19T06:23:05;2.33;;;1.42;;
49998;SDS011;68071;45.062;7.356;2023-04-19T06:26:09;1.75;;;1.30;;
49998;SDS011;68071;45.062;7.356;2023-04-19T06:29:13;1.95;;;1.50;;
49998;SDS011;68071;45.062;7.356;2023-04-19T06:32:20;2.55;;;1.30;;
49998;SDS011;68071;45.062;7.356;2023-04-19T06:35:24;1.67;;;1.30;;
49998;SDS011;68071;45.062;7.356;2023-04-19T06:38:28;1.98;;;1.42;;
49998;SDS011;68071;45.062;7.356;2023-04-19T06:41:32;1.92;;;1.48;;
49998;SDS011;68071;45.062;7.356;2023-04-19T06:44:36;2.10;;;1.35;;
49998;SDS011;68071;45.062;7.356;2023-04-19T06:47:40;3.00;;;1.50;;
49998;SDS011;68071;45.062;7.356;2023-04-19T06:50:45;3.78;;;1.58;;
49998;SDS011;68071;45.062;7.356;2023-04-19T06:53:49;2.70;;;1.33;;
49998;SDS011;68071;45.062;7.356;2023-04-19T06:56:55;2.55;;;1.60;;
49998;SDS011;68071;45.062;7.356;2023-04-19T06:59:59;2.20;;;1.52;;
49998;SDS011;68071;45.062;7.356;2023-04-19T07:03:03;2.03;;;1.38;;
49998;SDS011;68071;45.062;7.356;2023-04-19T07:06:07;1.70;;;1.38;;
49998;SDS011;68071;45.062;7.356;2023-04-19T07:09:11;3.30;;;1.52;;
49998;SDS011;68071;45.062;7.356;2023-04-19T07:12:15;1.90;;;1.58;;
49998;SDS011;68071;45.062;7.356;2023-04-19T07:15:19;2.40;;;1.63;;
49998;SDS011;68071;45.062;7.356;2023-04-19T07:18:23;2.70;;;1.55;;
49998;SDS011;68071;45.062;7.356;2023-04-19T07:21:28;1.92;;;1.48;;
49998;SDS011;68071;45.062;7.356;2023-04-19T07:24:36;2.38;;;1.33;;
49998;SDS011;68071;45.062;7.356;2023-04-19T07:27:42;2.60;;;1.75;;
49998;SDS011;68071;45.062;7.356;2023-04-19T07:30:46;3.88;;;1.40;;
49998;SDS011;68071;45.062;7.356;2023-04-19T07:33:50;1.73;;;1.40;;
49998;SDS011;68071;45.062;7.356;2023-04-19T07:36:55;2.10;;;1.60;;
49998;SDS011;68071;45.062;7.356;2023-04-19T07:39:59;2.42;;;1.40;;
49998;SDS011;68071;45.062;7.356;2023-04-19T07:43:03;2.78;;;1.40;;
49998;SDS011;68071;45.062;7.356;2023-04-19T07:46:08;1.83;;;1.38;;
49998;SDS011;68071;45.062;7.356;2023-04-19T07:49:13;2.13;;;1.40;;
49998;SDS011;68071;45.062;7.356;2023-04-19T07:52:18;2.95;;;1.48;;
49998;SDS011;68071;45.062;7.356;2023-04-19T07:55:22;2.08;;;1.50;;
49998;SDS011;68071;45.062;7.356;2023-04-19T07:58:26;2.00;;;1.38;;
49998;SDS011;68071;45.062;7.356;2023-04-19T08:01:30;2.35;;;1.20;;
49998;SDS011;68071;45.062;7.356;2023-04-19T08:04:34;1.98;;;1.30;;
49998;SDS011;68071;45.062;7.356;2023-04-19T08:07:39;2.55;;;1.55;;
49998;SDS011;68071;45.062;7.356;2023-04-19T08:10:43;2.15;;;1.52;;
49998;SDS011;68071;45.062;7.356;2023-04-19T08:13:47;3.35;;;1.65;;
49998;SDS011;68071;45.062;7.356;2023-04-19T08:16:51;2.20;;;1.70;;
49998;SDS011;68071;45.062;7.356;2023-04-19T08:19:54;2.65;;;1.65;;
49998;SDS011;68071;45.062;7.356;2023-04-19T08:22:59;2.85;;;2.00;;
49998;SDS011;68071;45.062;7.356;2023-04-19T08:26:03;3.53;;;1.63;;
49998;SDS011;68071;45.062;7.356;2023-04-19T08:29:08;2.33;;;1.70;;
49998;SDS011;68071;45.062;7.356;2023-04-19T08:32:12;3.20;;;2.15;;
49998;SDS011;68071;45.062;7.356;2023-04-19T08:35:16;3.25;;;2.28;;
49998;SDS011;68071;45.062;7.356;2023-04-19T08:38:21;2.25;;;2.00;;
49998;SDS011;68071;45.062;7.356;2023-04-19T08:41:25;3.22;;;2.17;;
49998;SDS011;68071;45.062;7.356;2023-04-19T08:44:31;3.25;;;1.80;;
49998;SDS011;68071;45.062;7.356;2023-04-19T08:47:36;3.60;;;2.15;;
49998;SDS011;68071;45.062;7.356;2023-04-19T08:50:41;2.60;;;1.98;;
49998;SDS011;68071;45.062;7.356;2023-04-19T08:53:46;3.45;;;2.10;;
49998;SDS011;68071;45.062;7.356;2023-04-19T08:56:52;2.70;;;1.88;;
49998;SDS011;68071;45.062;7.356;2023-04-19T08:59:57;1.80;;;1.58;;
49998;SDS011;68071;45.062;7.356;2023-04-19T09:03:03;2.67;;;1.60;;
49998;SDS011;68071;45.062;7.356;2023-04-19T09:06:10;2.33;;;1.58;;
49998;SDS011;68071;45.062;7.356;2023-04-19T09:09:21;3.42;;;1.60;;
49998;SDS011;68071;45.062;7.356;2023-04-19T09:12:30;2.83;;;1.70;;
49998;SDS011;68071;45.062;7.356;2023-04-19T09:15:38;2.72;;;1.67;;
49998;SDS011;68071;45.062;7.356;2023-04-19T09:18:53;2.80;;;1.85;;
49998;SDS011;68071;45.062;7.356;2023-04-19T09:22:01;3.70;;;1.77;;
49998;SDS011;68071;45.062;7.356;2023-04-19T09:25:24;3.40;;;1.88;;
49998;SDS011;68071;45.062;7.356;2023-04-19T09:28:29;2.65;;;2.10;;
49998;SDS011;68071;45.062;7.356;2023-04-19T09:31:35;2.50;;;1.73;;
49998;SDS011;68071;45.062;7.356;2023-04-19T09:34:49;4.75;;;2.10;;
49998;SDS011;68071;45.062;7.356;2023-04-19T09:38:01;3.70;;;2.47;;
49998;SDS011;68071;45.062;7.356;2023-04-19T09:41:08;3.78;;;2.90;;
49998;SDS011;68071;45.062;7.356;2023-04-19T09:44:13;3.92;;;2.33;;
49998;SDS011;68071;45.062;7.356;2023-04-19T09:47:22;5.13;;;3.00;;
49998;SDS011;68071;45.062;7.356;2023-04-19T09:50:29;5.95;;;3.53;;
49998;SDS011;68071;45.062;7.356;2023-04-19T09:53:34;4.60;;;3.13;;
49998;SDS011;68071;45.062;7.356;2023-04-19T09:56:39;5.28;;;3.33;;
49998;SDS011;68071;45.062;7.356;2023-04-19T09:59:43;4.60;;;3.15;;
49998;SDS011;68071;45.062;7.356;2023-04-19T10:02:50;5.32;;;3.75;;
49998;SDS011;68071;45.062;7.356;2023-04-19T10:06:00;6.13;;;4.13;;
49998;SDS011;68071;45.062;7.356;2023-04-19T10:09:06;5.80;;;3.88;;
49998;SDS011;68071;45.062;7.356;2023-04-19T10:12:11;5.57;;;4.28;;
49998;SDS011;68071;45.062;7.356;2023-04-19T10:15:19;8.43;;;4.70;;
49998;SDS011;68071;45.062;7.356;2023-04-19T10:18:25;6.65;;;4.55;;
49998;SDS011;68071;45.062;7.356;2023-04-19T10:21:29;6.45;;;5.38;;
49998;SDS011;68071;45.062;7.356;2023-04-19T10:24:35;7.90;;;5.70;;
49998;SDS011;68071;45.062;7.356;2023-04-19T10:27:39;7.72;;;5.80;;
49998;SDS011;68071;45.062;7.356;2023-04-19T10:30:52;8.50;;;5.80;;
49998;SDS011;68071;45.062;7.356;2023-04-19T10:33:58;8.57;;;6.15;;
49998;SDS011;68071;45.062;7.356;2023-04-19T10:37:02;9.05;;;6.57;;
49998;SDS011;68071;45.062;7.356;2023-04-19T10:49:26;10.20;;;6.60;;
49998;SDS011;68071;45.062;7.356;2023-04-19T10:52:31;13.23;;;7.15;;
49998;SDS011;68071;45.062;7.356;2023-04-19T10:55:48;8.07;;;5.80;;
49998;SDS011;68071;45.062;7.356;2023-04-19T11:05:25;13.10;;;7.38;;
49998;SDS011;68071;45.062;7.356;2023-04-19T11:08:30;12.15;;;8.18;;
49998;SDS011;68071;45.062;7.356;2023-04-19T11:11:35;12.13;;;8.97;;
49998;SDS011;68071;45.062;7.356;2023-04-19T11:14:43;8.25;;;6.28;;
49998;SDS011;68071;45.062;7.356;2023-04-19T11:17:51;12.75;;;8.20;;
49998;SDS011;68071;45.062;7.356;2023-04-19T11:20:56;10.15;;;6.65;;
49998;SDS011;68071;45.062;7.356;2023-04-19T11:24:09;8.30;;;6.20;;
49998;SDS011;68071;45.062;7.356;2023-04-19T11:27:14;8.85;;;7.00;;
49998;SDS011;68071;45.062;7.356;2023-04-19T11:30:19;8.65;;;6.38;;
49998;SDS011;68071;45.062;7.356;2023-04-19T11:33:25;8.65;;;5.35;;
49998;SDS011;68071;45.062;7.356;2023-04-19T11:39:43;9.35;;;5.82;;
49998;SDS011;68071;45.062;7.356;2023-04-19T11:42:55;8.77;;;5.72;;
49998;SDS011;68071;45.062;7.356;2023-04-19T11:46:07;8.82;;;4.90;;
49998;SDS011;68071;45.062;7.356;2023-04-19T11:49:24;11.07;;;5.78;;
49998;SDS011;68071;45.062;7.356;2023-04-19T11:52:29;8.43;;;5.45;;
49998;SDS011;68071;45.062;7.356;2023-04-19T11:55:38;8.70;;;5.28;;
49998;SDS011;68071;45.062;7.356;2023-04-19T11:58:45;6.68;;;4.68;;
49998;SDS011;68071;45.062;7.356;2023-04-19T12:01:53;7.15;;;5.30;;
49998;SDS011;68071;45.062;7.356;2023-04-19T12:05:05;7.97;;;5.50;;
49998;SDS011;68071;45.062;7.356;2023-04-19T12:08:10;8.63;;;5.30;;
49998;SDS011;68071;45.062;7.356;2023-04-19T12:11:15;8.73;;;6.22;;
49998;SDS011;68071;45.062;7.356;2023-04-19T12:14:21;8.02;;;5.63;;
49998;SDS011;68071;45.062;7.356;2023-04-19T12:20:34;5.85;;;4.78;;
49998;SDS011;68071;45.062;7.356;2023-04-19T12:23:40;6.57;;;4.80;;
49998;SDS011;68071;45.062;7.356;2023-04-19T12:26:56;7.03;;;4.47;;
49998;SDS011;68071;45.062;7.356;2023-04-19T12:30:01;7.90;;;5.15;;
49998;SDS011;68071;45.062;7.356;2023-04-19T12:33:05;7.30;;;4.38;;
49998;SDS011;68071;45.062;7.356;2023-04-19T12:36:10;6.18;;;4.07;;
49998;SDS011;68071;45.062;7.356;2023-04-19T12:39:14;6.32;;;4.45;;
49998;SDS011;68071;45.062;7.356;2023-04-19T12:42:18;5.25;;;3.85;;
49998;SDS011;68071;45.062;7.356;2023-04-19T12:45:22;6.95;;;4.70;;
49998;SDS011;68071;45.062;7.356;2023-04-19T12:48:27;8.05;;;5.20;;
49998;SDS011;68071;45.062;7.356;2023-04-19T12:51:31;6.88;;;4.63;;
49998;SDS011;68071;45.062;7.356;2023-04-19T12:54:35;6.55;;;4.43;;
49998;SDS011;68071;45.062;7.356;2023-04-19T12:57:40;6.00;;;4.57;;
49998;SDS011;68071;45.062;7.356;2023-04-19T13:00:44;6.03;;;4.18;;
49998;SDS011;68071;45.062;7.356;2023-04-19T13:03:48;5.25;;;4.10;;
49998;SDS011;68071;45.062;7.356;2023-04-19T13:06:52;6.57;;;4.88;;
49998;SDS011;68071;45.062;7.356;2023-04-19T13:09:55;6.50;;;4.32;;
49998;SDS011;68071;45.062;7.356;2023-04-19T13:12:59;6.80;;;4.80;;
49998;SDS011;68071;45.062;7.356;2023-04-19T13:16:03;6.65;;;4.90;;
49998;SDS011;68071;45.062;7.356;2023-04-19T13:19:10;6.97;;;4.05;;
49998;SDS011;68071;45.062;7.356;2023-04-19T13:22:14;7.50;;;4.78;;
49998;SDS011;68071;45.062;7.356;2023-04-19T13:25:18;6.75;;;4.35;;
49998;SDS011;68071;45.062;7.356;2023-04-19T13:28:23;6.47;;;4.77;;
49998;SDS011;68071;45.062;7.356;2023-04-19T13:31:27;7.47;;;5.32;;
49998;SDS011;68071;45.062;7.356;2023-04-19T13:34:32;6.10;;;4.70;;
49998;SDS011;68071;45.062;7.356;2023-04-19T13:37:36;6.05;;;4.53;;
49998;SDS011;68071;45.062;7.356;2023-04-19T13:40:40;7.45;;;4.60;;
49998;SDS011;68071;45.062;7.356;2023-04-19T13:43:44;8.48;;;5.13;;
49998;SDS011;68071;45.062;7.356;2023-04-19T13:46:49;6.60;;;4.65;;
49998;SDS011;68071;45.062;7.356;2023-04-19T13:49:53;9.55;;;5.70;;
49998;SDS011;68071;45.062;7.356;2023-04-19T13:52:57;7.85;;;5.13;;
49998;SDS011;68071;45.062;7.356;2023-04-19T13:56:01;8.98;;;5.22;;
49998;SDS011;68071;45.062;7.356;2023-04-19T14:02:10;7.20;;;4.35;;
49998;SDS011;68071;45.062;7.356;2023-04-19T14:05:14;5.43;;;4.23;;
49998;SDS011;68071;45.062;7.356;2023-04-19T14:08:19;6.90;;;4.38;;
49998;SDS011;68071;45.062;7.356;2023-04-19T14:11:24;5.47;;;4.18;;
49998;SDS011;68071;45.062;7.356;2023-04-19T14:14:29;7.45;;;4.40;;
49998;SDS011;68071;45.062;7.356;2023-04-19T14:17:33;7.13;;;4.68;;
49998;SDS011;68071;45.062;7.356;2023-04-19T14:20:38;7.20;;;3.92;;
49998;SDS011;68071;45.062;7.356;2023-04-19T14:23:46;5.50;;;4.25;;
49998;SDS011;68071;45.062;7.356;2023-04-19T14:26:50;7.70;;;4.67;;
49998;SDS011;68071;45.062;7.356;2023-04-19T14:29:54;4.32;;;3.60;;
49998;SDS011;68071;45.062;7.356;2023-04-19T14:32:59;5.22;;;3.35;;
49998;SDS011;68071;45.062;7.356;2023-04-19T14:36:03;4.87;;;3.40;;
49998;SDS011;68071;45.062;7.356;2023-04-19T14:39:10;4.30;;;2.97;;
49998;SDS011;68071;45.062;7.356;2023-04-19T14:42:14;3.80;;;3.00;;
49998;SDS011;68071;45.062;7.356;2023-04-19T14:45:19;4.63;;;3.50;;
49998;SDS011;68071;45.062;7.356;2023-04-19T14:48:23;5.33;;;3.20;;
49998;SDS011;68071;45.062;7.356;2023-04-19T14:51:28;5.23;;;2.90;;
49998;SDS011;68071;45.062;7.356;2023-04-19T14:54:34;4.88;;;3.08;;
49998;SDS011;68071;45.062;7.356;2023-04-19T14:57:42;3.30;;;2.78;;
49998;SDS011;68071;45.062;7.356;2023-04-19T15:00:56;3.85;;;2.72;;
49998;SDS011;68071;45.062;7.356;2023-04-19T15:04:01;2.75;;;2.20;;
49998;SDS011;68071;45.062;7.356;2023-04-19T15:07:10;4.10;;;2.90;;
49998;SDS011;68071;45.062;7.356;2023-04-19T15:10:14;3.80;;;2.92;;
49998;SDS011;68071;45.062;7.356;2023-04-19T15:13:19;4.93;;;3.10;;
49998;SDS011;68071;45.062;7.356;2023-04-19T15:16:23;3.45;;;2.70;;
49998;SDS011;68071;45.062;7.356;2023-04-19T15:19:30;4.10;;;2.67;;
49998;SDS011;68071;45.062;7.356;2023-04-19T15:22:35;3.55;;;2.28;;
49998;SDS011;68071;45.062;7.356;2023-04-19T15:25:39;3.63;;;2.40;;
49998;SDS011;68071;45.062;7.356;2023-04-19T15:28:53;3.70;;;2.45;;
49998;SDS011;68071;45.062;7.356;2023-04-19T15:31:58;3.60;;;2.63;;
49998;SDS011;68071;45.062;7.356;2023-04-19T15:35:03;3.33;;;2.50;;
49998;SDS011;68071;45.062;7.356;2023-04-19T15:38:08;2.95;;;2.28;;
49998;SDS011;68071;45.062;7.356;2023-04-19T15:41:12;4.83;;;2.60;;
49998;SDS011;68071;45.062;7.356;2023-04-19T15:44:17;4.43;;;2.88;;
49998;SDS011;68071;45.062;7.356;2023-04-19T15:47:21;4.72;;;2.80;;
49998;SDS011;68071;45.062;7.356;2023-04-19T15:50:25;2.87;;;2.40;;
49998;SDS011;68071;45.062;7.356;2023-04-19T15:53:30;4.53;;;2.58;;
49998;SDS011;68071;45.062;7.356;2023-04-19T15:56:44;3.58;;;3.03;;
49998;SDS011;68071;45.062;7.356;2023-04-19T15:59:51;4.57;;;2.75;;
49998;SDS011;68071;45.062;7.356;2023-04-19T16:02:58;4.03;;;2.53;;
49998;SDS011;68071;45.062;7.356;2023-04-19T16:06:05;4.43;;;2.53;;
49998;SDS011;68071;45.062;7.356;2023-04-19T16:09:17;3.47;;;3.10;;
49998;SDS011;68071;45.062;7.356;2023-04-19T16:12:23;3.83;;;3.00;;
49998;SDS011;68071;45.062;7.356;2023-04-19T16:15:31;11.98;;;4.32;;
49998;SDS011;68071;45.062;7.356;2023-04-19T16:18:35;4.38;;;3.08;;
49998;SDS011;68071;45.062;7.356;2023-04-19T16:21:47;5.55;;;3.05;;
49998;SDS011;68071;45.062;7.356;2023-04-19T16:24:51;3.65;;;3.08;;
49998;SDS011;68071;45.062;7.356;2023-04-19T16:27:56;4.90;;;2.92;;
49998;SDS011;68071;45.062;7.356;2023-04-19T16:31:04;5.22;;;3.25;;
49998;SDS011;68071;45.062;7.356;2023-04-19T16:34:10;6.05;;;3.20;;
49998;SDS011;68071;45.062;7.356;2023-04-19T16:37:17;4.47;;;2.85;;
49998;SDS011;68071;45.062;7.356;2023-04-19T16:40:28;4.18;;;2.88;;
49998;SDS011;68071;45.062;7.356;2023-04-19T16:43:38;4.25;;;3.13;;
49998;SDS011;68071;45.062;7.356;2023-04-19T16:46:42;4.22;;;2.90;;
49998;SDS011;68071;45.062;7.356;2023-04-19T16:49:46;3.88;;;3.17;;
49998;SDS011;68071;45.062;7.356;2023-04-19T16:52:52;5.65;;;2.80;;
49998;SDS011;68071;45.062;7.356;2023-04-19T16:56:06;4.13;;;3.30;;
49998;SDS011;68071;45.062;7.356;2023-04-19T16:59:10;6.30;;;2.85;;
49998;SDS011;68071;45.062;7.356;2023-04-19T17:02:14;4.40;;;2.67;;
49998;SDS011;68071;45.062;7.356;2023-04-19T17:05:19;3.55;;;2.90;;
49998;SDS011;68071;45.062;7.356;2023-04-19T17:08:29;4.55;;;2.78;;
49998;SDS011;68071;45.062;7.356;2023-04-19T17:11:33;2.78;;;2.40;;
49998;SDS011;68071;45.062;7.356;2023-04-19T17:14:38;6.35;;;2.50;;
49998;SDS011;68071;45.062;7.356;2023-04-19T17:17:43;4.28;;;2.65;;
49998;SDS011;68071;45.062;7.356;2023-04-19T17:20:46;6.00;;;3.10;;
49998;SDS011;68071;45.062;7.356;2023-04-19T17:23:51;5.30;;;2.97;;
49998;SDS011;68071;45.062;7.356;2023-04-19T17:26:56;3.00;;;2.67;;
49998;SDS011;68071;45.062;7.356;2023-04-19T17:30:01;3.70;;;2.17;;
49998;SDS011;68071;45.062;7.356;2023-04-19T17:33:05;3.17;;;2.42;;
49998;SDS011;68071;45.062;7.356;2023-04-19T17:36:09;3.58;;;2.40;;
49998;SDS011;68071;45.062;7.356;2023-04-19T17:39:13;4.80;;;2.53;;
49998;SDS011;68071;45.062;7.356;2023-04-19T17:42:18;4.20;;;2.78;;
49998;SDS011;68071;45.062;7.356;2023-04-19T17:45:23;4.28;;;2.60;;
49998;SDS011;68071;45.062;7.356;2023-04-19T17:48:27;4.28;;;3.65;;
49998;SDS011;68071;45.062;7.356;2023-04-19T17:51:31;7.13;;;3.45;;
49998;SDS011;68071;45.062;7.356;2023-04-19T17:54:35;4.32;;;2.90;;
49998;SDS011;68071;45.062;7.356;2023-04-19T17:57:40;3.65;;;2.50;;
49998;SDS011;68071;45.062;7.356;2023-04-19T18:00:44;4.70;;;3.70;;
49998;SDS011;68071;45.062;7.356;2023-04-19T18:03:49;11.82;;;9.95;;
49998;SDS011;68071;45.062;7.356;2023-04-19T18:06:53;6.80;;;5.80;;
49998;SDS011;68071;45.062;7.356;2023-04-19T18:09:57;6.07;;;3.90;;
49998;SDS011;68071;45.062;7.356;2023-04-19T18:13:01;5.25;;;3.42;;
49998;SDS011;68071;45.062;7.356;2023-04-19T18:16:05;4.20;;;3.28;;
49998;SDS011;68071;45.062;7.356;2023-04-19T18:19:09;4.97;;;3.50;;
49998;SDS011;68071;45.062;7.356;2023-04-19T18:22:13;3.72;;;3.08;;
49998;SDS011;68071;45.062;7.356;2023-04-19T18:25:17;3.95;;;3.42;;
49998;SDS011;68071;45.062;7.356;2023-04-19T18:28:22;5.43;;;4.07;;
49998;SDS011;68071;45.062;7.356;2023-04-19T18:31:26;4.90;;;4.30;;
49998;SDS011;68071;45.062;7.356;2023-04-19T18:34:30;4.53;;;3.25;;
49998;SDS011;68071;45.062;7.356;2023-04-19T18:37:34;4.82;;;3.03;;
49998;SDS011;68071;45.062;7.356;2023-04-19T18:40:38;3.70;;;2.65;;
49998;SDS011;68071;45.062;7.356;2023-04-19T18:43:42;2.65;;;1.95;;
49998;SDS011;68071;45.062;7.356;2023-04-19T18:46:49;3.58;;;2.10;;
49998;SDS011;68071;45.062;7.356;2023-04-19T18:49:57;2.63;;;1.70;;
49998;SDS011;68071;45.062;7.356;2023-04-19T18:53:01;2.65;;;1.55;;
49998;SDS011;68071;45.062;7.356;2023-04-19T18:56:06;2.35;;;1.33;;
49998;SDS011;68071;45.062;7.356;2023-04-19T18:59:12;1.20;;;0.93;;
49998;SDS011;68071;45.062;7.356;2023-04-19T19:02:16;1.98;;;1.20;;
49998;SDS011;68071;45.062;7.356;2023-04-19T19:05:21;1.67;;;1.38;;
49998;SDS011;68071;45.062;7.356;2023-04-19T19:08:25;5.03;;;2.65;;
49998;SDS011;68071;45.062;7.356;2023-04-19T19:11:30;4.28;;;2.88;;
49998;SDS011;68071;45.062;7.356;2023-04-19T19:14:34;4.07;;;3.22;;
49998;SDS011;68071;45.062;7.356;2023-04-19T19:17:39;4.32;;;2.83;;
49998;SDS011;68071;45.062;7.356;2023-04-19T19:20:43;2.50;;;2.03;;
49998;SDS011;68071;45.062;7.356;2023-04-19T19:23:47;3.08;;;2.20;;